createdAt,value
2018-09-20T00:05:55.204Z,5.60
2018-09-20T00:08:58.640Z,5.80
2018-09-20T00:12:02.163Z,5.30
2018-09-20T00:15:05.726Z,5.47
2018-09-20T00:18:09.282Z,5.80
2018-09-20T00:21:12.832Z,5.60
2018-09-20T00:24:16.252Z,5.20
2018-09-20T00:27:19.808Z,5.93
2018-09-20T00:30:23.261Z,5.40
2018-09-20T00:33:26.750Z,5.80
2018-09-20T00:36:30.168Z,5.60
2018-09-20T00:39:33.970Z,6.20
2018-09-20T00:42:37.496Z,5.30
2018-09-20T00:45:41.235Z,5.40
2018-09-20T00:48:44.674Z,6.00
2018-09-20T00:51:48.585Z,6.07
2018-09-20T00:54:52.730Z,5.37
2018-09-20T00:57:56.520Z,5.30
2018-09-20T01:01:00.607Z,5.27
2018-09-20T01:04:04.058Z,5.87
2018-09-20T01:07:07.590Z,5.47
2018-09-20T01:10:11.034Z,5.90
2018-09-20T01:13:14.431Z,5.67
2018-09-20T01:16:17.839Z,6.30
2018-09-20T01:19:21.339Z,5.90
2018-09-20T01:22:24.908Z,5.97
2018-09-20T01:25:28.350Z,5.63
2018-09-20T01:28:31.745Z,5.87
2018-09-20T01:31:35.150Z,5.60
2018-09-20T01:34:38.565Z,5.80
2018-09-20T01:37:42.386Z,5.83
2018-09-20T01:40:45.981Z,5.90
2018-09-20T01:43:49.457Z,6.20
2018-09-20T01:46:52.855Z,5.50
2018-09-20T01:49:56.253Z,5.90
2018-09-20T01:52:59.895Z,5.57
2018-09-20T01:56:03.361Z,6.30
2018-09-20T01:59:06.817Z,6.03
2018-09-20T02:02:10.394Z,5.77
2018-09-20T02:05:13.897Z,6.30
2018-09-20T02:08:17.375Z,6.20
2018-09-20T02:11:20.778Z,6.23
2018-09-20T02:14:24.271Z,5.60
2018-09-20T02:17:27.670Z,5.80
2018-09-20T02:20:31.090Z,6.00
2018-09-20T02:23:34.738Z,6.10
2018-09-20T02:26:38.152Z,6.13
2018-09-20T02:29:41.572Z,5.97
2018-09-20T02:32:45.039Z,6.10
2018-09-20T02:35:48.479Z,6.20
2018-09-20T02:38:51.919Z,6.43
2018-09-20T02:41:55.269Z,6.43
2018-09-20T02:44:58.669Z,6.80
2018-09-20T02:48:02.115Z,6.03
2018-09-20T02:51:05.473Z,6.10
2018-09-20T02:54:08.908Z,7.13
2018-09-20T02:57:12.273Z,6.57
2018-09-20T03:00:15.728Z,6.23
2018-09-20T03:03:19.184Z,6.37
2018-09-20T03:06:22.576Z,6.30
2018-09-20T03:09:25.983Z,6.43
2018-09-20T03:12:29.365Z,6.83
2018-09-20T03:15:32.770Z,6.20
2018-09-20T03:18:36.306Z,5.90
2018-09-20T03:21:39.659Z,6.30
2018-09-20T03:24:43.367Z,5.93
2018-09-20T03:27:46.799Z,6.07
2018-09-20T03:30:50.542Z,6.00
2018-09-20T03:33:53.886Z,7.07
2018-09-20T03:36:57.303Z,6.10
2018-09-20T03:40:00.826Z,6.53
2018-09-20T03:43:04.206Z,6.80
2018-09-20T03:46:07.862Z,6.50
2018-09-20T03:49:11.313Z,6.43
2018-09-20T03:52:14.887Z,6.70
2018-09-20T03:55:18.413Z,7.23
2018-09-20T03:58:22.148Z,6.87
2018-09-20T04:01:25.623Z,7.37
2018-09-20T04:04:29.231Z,7.20
2018-09-20T04:07:32.807Z,7.30
2018-09-20T04:10:36.363Z,6.80
2018-09-20T04:13:39.876Z,7.10
2018-09-20T04:16:43.339Z,6.60
2018-09-20T04:19:46.856Z,7.40
2018-09-20T04:22:50.479Z,7.47
2018-09-20T04:25:53.958Z,7.07
2018-09-20T04:28:57.824Z,7.67
2018-09-20T04:32:01.335Z,7.43
2018-09-20T04:35:04.931Z,7.00
2018-09-20T04:38:08.394Z,7.23
2018-09-20T04:41:11.973Z,7.00
2018-09-20T04:44:15.456Z,6.40
2018-09-20T04:47:18.971Z,6.60
2018-09-20T04:50:22.572Z,7.57
2018-09-20T04:53:26.121Z,6.93
2018-09-20T04:56:29.604Z,7.50
2018-09-20T04:59:33.077Z,7.13
2018-09-20T05:02:36.568Z,6.73
2018-09-20T05:05:40.077Z,7.30
2018-09-20T05:08:43.488Z,7.40
2018-09-20T05:11:47.006Z,6.83
2018-09-20T05:14:50.504Z,7.70
2018-09-20T05:17:54.019Z,7.80
2018-09-20T05:20:57.559Z,6.70
2018-09-20T05:24:01.039Z,7.40
2018-09-20T05:27:04.496Z,7.43
2018-09-20T05:30:07.967Z,7.37
2018-09-20T05:33:11.468Z,6.97
2018-09-20T05:36:14.910Z,7.53
2018-09-20T05:39:18.415Z,8.97
2018-09-20T05:42:21.906Z,8.20
2018-09-20T05:45:25.495Z,8.23
2018-09-20T05:48:29.017Z,7.97
2018-09-20T05:51:32.420Z,7.97
2018-09-20T05:54:36.326Z,8.77
2018-09-20T05:57:39.846Z,7.73
2018-09-20T06:00:43.396Z,7.83
2018-09-20T06:03:47.211Z,7.77
2018-09-20T06:06:50.752Z,7.53
2018-09-20T06:09:54.259Z,8.60
2018-09-20T06:12:57.701Z,7.70
2018-09-20T06:16:01.159Z,7.90
2018-09-20T06:19:04.585Z,7.60
2018-09-20T06:22:08.401Z,8.37
2018-09-20T06:25:12.170Z,8.60
2018-09-20T06:28:15.583Z,7.93
2018-09-20T06:31:19.023Z,7.77
2018-09-20T06:34:22.501Z,8.47
2018-09-20T06:37:26.074Z,7.87
2018-09-20T06:40:29.504Z,8.20
2018-09-20T06:43:32.971Z,7.87
2018-09-20T06:46:36.388Z,9.07
2018-09-20T06:49:39.806Z,8.83
2018-09-20T06:52:43.307Z,8.67
2018-09-20T06:55:46.817Z,8.53
2018-09-20T06:58:50.356Z,8.67
2018-09-20T07:01:53.818Z,8.67
2018-09-20T07:04:57.469Z,8.67
2018-09-20T07:08:01.013Z,8.50
2018-09-20T07:11:04.436Z,8.60
2018-09-20T07:14:07.981Z,8.47
2018-09-20T07:17:11.489Z,9.17
2018-09-20T07:20:14.973Z,8.73
2018-09-20T07:23:18.588Z,8.57
2018-09-20T07:26:22.046Z,8.57
2018-09-20T07:29:25.501Z,8.33
2018-09-20T07:32:28.904Z,7.33
2018-09-20T07:35:32.380Z,8.53
2018-09-20T07:38:35.887Z,8.50
2018-09-20T07:41:39.765Z,8.20
2018-09-20T07:44:43.116Z,7.53
2018-09-20T07:47:46.523Z,7.70
2018-09-20T07:50:50.299Z,8.07
2018-09-20T07:53:53.766Z,8.10
2018-09-20T07:56:57.338Z,7.57
2018-09-20T08:00:02.873Z,8.43
2018-09-20T08:03:06.310Z,8.07
2018-09-20T08:06:09.765Z,7.90
2018-09-20T08:09:13.491Z,7.67
2018-09-20T08:12:17.156Z,7.57
2018-09-20T08:15:20.505Z,7.77
2018-09-20T08:18:24.256Z,7.60
2018-09-20T08:21:27.779Z,7.60
2018-09-20T08:24:31.156Z,7.40
2018-09-20T08:27:34.506Z,7.13
2018-09-20T08:30:37.938Z,6.87
2018-09-20T08:33:41.532Z,6.77
2018-09-20T08:36:44.965Z,6.33
2018-09-20T08:39:48.418Z,7.10
2018-09-20T08:42:51.886Z,7.43
2018-09-20T08:45:55.356Z,7.27
2018-09-20T08:48:58.759Z,5.80
2018-09-20T08:52:02.173Z,6.43
2018-09-20T08:55:06.087Z,6.30
2018-09-20T08:58:09.608Z,6.07
2018-09-20T09:01:13.156Z,6.20
2018-09-20T09:04:16.642Z,5.93
2018-09-20T09:07:20.051Z,5.53
2018-09-20T09:10:23.571Z,6.20
2018-09-20T09:13:26.976Z,5.43
2018-09-20T09:16:30.497Z,5.30
2018-09-20T09:19:34.056Z,5.37
2018-09-20T09:22:37.577Z,5.13
2018-09-20T09:25:41.194Z,4.90
2018-09-20T09:28:44.717Z,5.23
2018-09-20T09:31:48.164Z,4.67
2018-09-20T09:34:51.743Z,5.20
2018-09-20T09:37:55.170Z,4.87
2018-09-20T09:40:58.765Z,4.90
2018-09-20T09:44:02.390Z,4.73
2018-09-20T09:47:05.928Z,4.73
2018-09-20T09:50:09.456Z,4.10
2018-09-20T09:53:13.086Z,4.00
2018-09-20T09:56:16.640Z,5.10
2018-09-20T09:59:20.098Z,4.20
2018-09-20T10:02:23.789Z,4.30
2018-09-20T10:05:27.317Z,4.60
2018-09-20T10:08:30.948Z,4.30
2018-09-20T10:11:34.456Z,4.50
2018-09-20T10:14:38.188Z,4.20
2018-09-20T10:17:41.731Z,4.73
2018-09-20T10:20:45.279Z,4.37
2018-09-20T10:23:48.791Z,4.27
2018-09-20T10:26:52.294Z,4.53
2018-09-20T10:29:55.728Z,4.57
2018-09-20T10:32:59.271Z,4.67
2018-09-20T10:36:02.869Z,4.27
2018-09-20T10:39:09.219Z,4.43
2018-09-20T10:42:12.817Z,4.20
2018-09-20T10:45:16.349Z,4.10
2018-09-20T10:48:19.830Z,4.20
2018-09-20T10:51:23.520Z,4.33
2018-09-20T10:54:27.364Z,4.70
2018-09-20T10:57:30.947Z,4.40
2018-09-20T11:00:34.474Z,4.50
2018-09-20T11:03:38.073Z,4.20
2018-09-20T11:06:41.593Z,4.80
2018-09-20T11:09:45.309Z,4.60
2018-09-20T11:12:48.878Z,4.77
2018-09-20T11:15:52.458Z,4.87
2018-09-20T11:18:55.936Z,4.47
2018-09-20T11:21:59.493Z,4.80
2018-09-20T11:25:03.027Z,4.97
2018-09-20T11:28:06.559Z,4.67
2018-09-20T11:31:10.081Z,4.97
2018-09-20T11:34:13.602Z,4.90
2018-09-20T11:37:17.976Z,5.07
2018-09-20T11:40:21.423Z,5.30
2018-09-20T11:43:24.944Z,5.37
2018-09-20T11:46:30.253Z,4.03
2018-09-20T11:49:33.791Z,4.97
2018-09-20T11:52:37.343Z,4.25
2018-09-20T11:55:40.795Z,4.00
2018-09-20T11:58:44.386Z,4.30
2018-09-20T12:01:48.021Z,4.30
2018-09-20T12:04:51.563Z,4.27
2018-09-20T12:07:55.066Z,4.50
2018-09-20T12:10:58.527Z,4.43
2018-09-20T12:14:02.099Z,4.33
2018-09-20T12:17:05.526Z,3.73
2018-09-20T12:20:09.047Z,3.93
2018-09-20T12:23:12.491Z,4.23
2018-09-20T12:26:15.955Z,3.90
2018-09-20T12:29:19.461Z,4.03
2018-09-20T12:32:23.533Z,4.03
2018-09-20T12:35:26.868Z,4.07
2018-09-20T12:38:30.345Z,3.83
2018-09-20T12:41:33.878Z,3.90
2018-09-20T12:44:37.318Z,3.90
2018-09-20T12:47:41.088Z,3.90
2018-09-20T12:50:44.700Z,3.80
2018-09-20T12:53:48.099Z,4.20
2018-09-20T12:56:51.617Z,4.30
2018-09-20T12:59:55.109Z,4.43
2018-09-20T13:02:58.598Z,4.20
2018-09-20T13:06:02.134Z,4.10
2018-09-20T13:09:08.273Z,4.60
2018-09-20T13:12:11.835Z,4.50
2018-09-20T13:15:15.350Z,4.37
2018-09-20T13:18:18.902Z,3.80
2018-09-20T13:21:22.384Z,4.50
2018-09-20T13:24:25.986Z,4.23
2018-09-20T13:27:29.616Z,4.67
2018-09-20T13:30:33.109Z,4.77
2018-09-20T13:33:36.578Z,4.70
2018-09-20T13:36:40.145Z,4.40
2018-09-20T13:39:43.683Z,4.20
2018-09-20T13:42:47.289Z,4.43
2018-09-20T13:45:50.994Z,4.40
2018-09-20T13:48:54.581Z,4.77
2018-09-20T13:51:58.152Z,4.33
2018-09-20T13:55:01.642Z,4.53
2018-09-20T13:58:05.315Z,4.30
2018-09-20T14:01:08.913Z,4.30
2018-09-20T14:04:12.434Z,4.60
2018-09-20T14:07:16.263Z,4.40
2018-09-20T14:10:19.938Z,4.27
2018-09-20T14:13:23.453Z,4.07
2018-09-20T14:16:27.053Z,4.10
2018-09-20T14:19:30.719Z,4.57
2018-09-20T14:22:34.430Z,5.10
2018-09-20T14:25:37.919Z,3.90
2018-09-20T14:28:41.536Z,4.23
2018-09-20T14:31:45.079Z,3.97
2018-09-20T14:34:48.568Z,4.23
2018-09-20T14:37:52.080Z,4.33
2018-09-20T14:40:55.657Z,3.93
2018-09-20T14:43:59.277Z,3.93
2018-09-20T14:47:02.770Z,3.87
2018-09-20T14:50:06.301Z,4.40
2018-09-20T14:53:09.866Z,3.90
2018-09-20T14:56:13.355Z,4.00
2018-09-20T14:59:16.833Z,4.07
2018-09-20T15:02:20.431Z,3.70
2018-09-20T15:05:24.021Z,4.17
2018-09-20T15:08:27.469Z,4.33
2018-09-20T15:11:30.996Z,3.90
2018-09-20T15:14:34.521Z,3.63
2018-09-20T15:17:37.939Z,3.83
2018-09-20T15:20:41.533Z,4.20
2018-09-20T15:23:45.163Z,3.80
2018-09-20T15:26:48.770Z,4.27
2018-09-20T15:29:52.294Z,3.97
2018-09-20T15:32:55.874Z,4.43
2018-09-20T15:35:59.470Z,3.67
2018-09-20T15:39:03.527Z,4.27
2018-09-20T15:42:07.071Z,3.97
2018-09-20T15:45:10.682Z,3.93
2018-09-20T15:48:14.161Z,3.70
2018-09-20T15:51:17.627Z,3.90
2018-09-20T15:54:21.170Z,4.60
2018-09-20T15:57:24.664Z,4.30
2018-09-20T16:00:28.206Z,3.80
2018-09-20T16:03:31.640Z,4.20
2018-09-20T16:06:35.205Z,4.17
2018-09-20T16:09:38.645Z,4.17
2018-09-20T16:12:42.487Z,4.00
2018-09-20T16:18:57.775Z,4.43
2018-09-20T16:22:01.214Z,4.13
2018-09-20T16:25:05.143Z,3.83
2018-09-20T16:28:18.900Z,3.80
2018-09-20T16:31:33.853Z,4.10
2018-09-20T16:34:52.661Z,4.33
2018-09-20T16:38:03.956Z,4.17
2018-09-20T16:41:09.878Z,4.30
2018-09-20T16:44:13.343Z,4.00
2018-09-20T16:47:16.747Z,4.30
2018-09-20T16:50:20.145Z,3.80
2018-09-20T16:53:24.015Z,4.63
2018-09-20T16:56:27.440Z,4.47
2018-09-20T16:59:30.876Z,4.60
2018-09-20T17:02:34.283Z,3.77
2018-09-20T17:05:37.794Z,4.67
2018-09-20T17:08:41.415Z,3.90
2018-09-20T17:11:44.965Z,5.07
2018-09-20T17:14:48.439Z,4.30
2018-09-20T17:17:51.884Z,4.40
2018-09-20T17:20:55.277Z,4.70
2018-09-20T17:23:58.684Z,4.80
2018-09-20T17:27:02.103Z,5.27
2018-09-20T17:30:05.556Z,6.00
2018-09-20T17:33:09.075Z,6.70
2018-09-20T17:36:12.878Z,5.60
2018-09-20T17:39:17.267Z,5.43
2018-09-20T17:42:22.193Z,4.97
2018-09-20T17:45:25.602Z,5.30
2018-09-20T17:48:29.074Z,4.90
2018-09-20T17:51:32.949Z,5.20
2018-09-20T17:54:37.133Z,4.97
2018-09-20T17:57:41.489Z,5.27
2018-09-20T18:00:44.928Z,5.10
2018-09-20T18:03:48.490Z,5.13
2018-09-20T18:06:51.969Z,5.00
2018-09-20T18:09:55.811Z,5.67
2018-09-20T18:12:59.238Z,5.90
2018-09-20T18:16:02.681Z,6.17
2018-09-20T18:19:06.067Z,6.00
2018-09-20T18:22:09.609Z,6.27
2018-09-20T18:25:13.158Z,5.90
2018-09-20T18:28:16.574Z,6.40
2018-09-20T18:31:20.214Z,6.73
2018-09-20T18:34:23.987Z,6.50
2018-09-20T18:37:28.792Z,6.00
2018-09-20T18:40:32.593Z,5.77
2018-09-20T18:43:36.125Z,6.77
2018-09-20T18:46:39.709Z,6.07
2018-09-20T18:49:43.202Z,6.23
2018-09-20T18:52:46.789Z,6.50
2018-09-20T18:55:50.290Z,6.47
2018-09-20T18:58:53.844Z,6.67
2018-09-20T19:01:57.328Z,6.80
2018-09-20T19:05:00.867Z,6.37
2018-09-20T19:08:04.441Z,7.03
2018-09-20T19:11:08.018Z,6.57
2018-09-20T19:14:11.689Z,6.10
2018-09-20T19:17:15.147Z,5.90
2018-09-20T19:20:18.684Z,6.33
2018-09-20T19:23:22.228Z,6.37
2018-09-20T19:26:25.798Z,6.03
2018-09-20T19:29:29.539Z,6.40
2018-09-20T19:32:33.060Z,6.20
2018-09-20T19:35:36.626Z,6.50
2018-09-20T19:38:40.162Z,5.80
2018-09-20T19:41:43.647Z,6.27
2018-09-20T19:44:47.168Z,6.13
2018-09-20T19:47:50.640Z,6.17
2018-09-20T19:50:54.062Z,6.00
2018-09-20T19:53:57.550Z,6.37
2018-09-20T19:57:01.086Z,6.40
2018-09-20T20:00:04.981Z,6.70
2018-09-20T20:03:08.633Z,6.57
2018-09-20T20:06:12.071Z,6.73
2018-09-20T20:09:15.477Z,6.23
2018-09-20T20:12:19.094Z,6.10
2018-09-20T20:15:22.605Z,5.70
2018-09-20T20:18:26.113Z,5.73
2018-09-20T20:21:29.668Z,5.70
2018-09-20T20:24:33.084Z,5.83
2018-09-20T20:27:36.573Z,6.13
2018-09-20T20:30:40.598Z,5.70
2018-09-20T20:33:45.172Z,5.90
2018-09-20T20:36:49.602Z,6.10
2018-09-20T20:39:54.429Z,5.60
2018-09-20T20:42:58.874Z,6.37
2018-09-20T20:46:03.830Z,5.90
2018-09-20T20:49:08.294Z,5.93
2018-09-20T20:52:12.844Z,6.27
2018-09-20T20:55:17.448Z,6.20
2018-09-20T20:58:21.847Z,5.50
2018-09-20T21:01:26.384Z,5.53
2018-09-20T21:04:30.723Z,6.27
2018-09-20T21:07:35.390Z,5.93
2018-09-20T21:10:40.861Z,5.67
2018-09-20T21:13:45.248Z,5.90
2018-09-20T21:16:49.886Z,5.83
2018-09-20T21:19:54.977Z,5.97
2018-09-20T21:22:59.459Z,5.63
2018-09-20T21:26:03.978Z,5.93
2018-09-20T21:29:09.819Z,6.00
2018-09-20T21:32:14.299Z,5.77
2018-09-20T21:35:19.030Z,6.13
2018-09-20T21:38:23.738Z,6.17
2018-09-20T21:41:28.641Z,5.20
2018-09-20T21:44:33.012Z,5.80
2018-09-20T21:47:37.526Z,5.17
2018-09-20T21:50:42.129Z,5.73
2018-09-20T21:53:46.680Z,6.07
2018-09-20T21:56:51.150Z,5.53
2018-09-20T21:59:54.648Z,5.67
2018-09-20T22:03:02.481Z,5.87
2018-09-20T22:06:06.928Z,5.33
2018-09-20T22:09:12.547Z,5.63
2018-09-20T22:12:16.013Z,5.83
2018-09-20T22:15:23.452Z,5.83
2018-09-20T22:18:26.927Z,5.90
2018-09-20T22:21:30.297Z,5.33
2018-09-20T22:24:33.719Z,6.07
2018-09-20T22:27:38.280Z,5.43
2018-09-20T22:30:41.715Z,5.70
2018-09-20T22:33:45.142Z,5.43
2018-09-20T22:36:48.564Z,5.30
2018-09-20T22:39:51.947Z,5.60
2018-09-20T22:42:55.338Z,5.30
2018-09-20T22:45:58.884Z,5.63
2018-09-20T22:49:02.368Z,6.17
2018-09-20T22:52:05.860Z,5.63
2018-09-20T22:55:09.271Z,5.27
2018-09-20T22:58:12.649Z,5.73
2018-09-20T23:01:16.043Z,6.07
2018-09-20T23:04:19.490Z,5.70
2018-09-20T23:07:22.912Z,5.60
2018-09-20T23:10:26.377Z,5.77
2018-09-20T23:13:29.756Z,5.60
2018-09-20T23:16:33.403Z,6.40
2018-09-20T23:19:36.943Z,5.97
2018-09-20T23:22:40.357Z,5.70
2018-09-20T23:25:43.842Z,5.53
2018-09-20T23:28:47.518Z,5.83
2018-09-20T23:31:51.936Z,6.33
2018-09-20T23:34:55.634Z,5.60
2018-09-20T23:37:59.060Z,5.90
2018-09-20T23:41:02.532Z,5.87
2018-09-20T23:44:06.193Z,5.70
2018-09-20T23:47:09.650Z,5.80
2018-09-20T23:50:13.169Z,5.67
2018-09-20T23:53:16.621Z,5.93
2018-09-20T23:56:20.161Z,5.60
2018-09-20T23:59:24.584Z,5.80
